Sleights, United Kingdom
Current Conditions -  °F | °C
As of 4:20 PM on Friday 21 Nov 2014 (Local Time) from EGNV Reporting Station
Scattered Clouds Scattered Clouds  
Wind Chill: 44°   Ceiling: Unl
Heat Index: 48°   Visibility: 4mi
Dew Point: 41°   Wind: 10mph
Humidity: 76%   Direction: 140°SE
Pressure: 30"   Gusts: NA
Location:  54.46°N, 0.66°W
Report Text: EGNV 211620Z 14009KT 6000 SCT021 09/05 Q1016
Loading
Personal Weather Stations






























Interactive Weather Map New forecast layout! Learn more

10-Day Weather Forecast

Advertisements
Track Severe Weather on mobile